X  Fechar Metar - Info de Aeroporto     EHKD De Kooy Airport
Temperatura
21°C Temperatura
18°C Ptº Orvalho
83% Humidade



Vento
4 M/S
10 MPH
16 KM/H
9 NÓS



20°
NNL
Condições Atuais

Limpo Limpo
Pressão 1013.88 (hPa) - 29.94 (inHg)
Visibilidade 6 (milha) - 9.7 (km)
Aeroporto
Código-Aeropoto EHKD

Localização: De Kooy Airport
Distância: 34 (km)

Metar:
EHKD 251855Z AUTO 02009KT 330V060 9999 NCD 21/18 Q1014 BLU NOSIG

Hora: 25-06-2024 20:55 CEST